Flight Track Log - Related Links

Times and Time Zones

All times are in EDT time to prevent confusion due to time zone crossing. See the EJA929 flight status page for this flight to view local times or setup timezone preferences in your user account.

Time Position Orientation Groundspeed Altitude Reporting Facility
EDT Latitude Longitude Course Direction KTS MPH feet Rate Location/Type
Sat 11:29:36 AM 34.7392 -92.2172 82° East 155 178 1,000  Level Memphis Center
Sat 11:30:36 AM 34.7461 -92.1567 82° East 198 228 3,300 2,757 Climbing Memphis Center
Sat 11:31:27 AM 34.7492 -92.0833 87° East 245 282 6,100 3,273 Climbing Memphis Center
Sat 11:31:31 AM 34.7472 -92.0883 245° Southwest 245 282 6,300 11,633 Climbing Memphis Center
Sat 11:34:27 AM 34.7450 -91.7675 90° East 330 380 41,000 8,822 Climbing Memphis Center
Sat 11:35:27 AM 34.7628 -91.6564 79° East 360 414 41,000 -11,000 Level Memphis Center
Sat 11:36:27 AM 34.7931 -91.5406 72° East 365 420 19,000 -10,000 Descending Memphis Center
Sat 11:37:27 AM 34.8297 -91.4247 69° East 365 420 21,000 1,750 Climbing Memphis Center
Sat 11:38:27 AM 34.8619 -91.3036 72° East 371 427 22,500 1,450 Climbing Memphis Center
Sat 11:39:27 AM 34.9025 -91.1750 69° East 393 452 23,900 1,200 Climbing Memphis Center
Sat 11:40:27 AM 34.9431 -91.0361 70° East 421 484 24,900 1,000 Climbing Memphis Center
Sat 11:41:27 AM 34.9917 -90.8767 70° East 444 511 25,900 1,050 Climbing Memphis Center
Sat 11:42:27 AM 35.0361 -90.7275 70° East 463 533 27,000 1,050 Climbing Memphis Center
Sat 11:43:27 AM 35.0803 -90.5678 71° East 475 547 28,000 1,000 Climbing Memphis Center
Sat 11:44:27 AM 35.1283 -90.4053 70° East 490 564 29,000 1,000 Climbing Memphis Center
Sat 11:45:27 AM 35.1764 -90.2403 70° East 497 572 30,000 850 Climbing Memphis Center
Sat 11:46:27 AM 35.2261 -90.0725 70° East 515 593 30,700 850 Climbing Memphis Center
Sat 11:47:27 AM 35.2778 -89.8967 70° East 536 617 31,700 900 Climbing Memphis Center
Sat 11:48:27 AM 35.3228 -89.7386 71° East 545 627 32,500 900 Climbing Memphis Center
Sat 11:49:27 AM 35.3719 -89.5600 71° East 550 633 33,500 1,000 Climbing Memphis Center
Sat 11:50:27 AM 35.4206 -89.3811 72° East 550 633 34,500 1,100 Climbing Memphis Center
Sat 11:51:27 AM 35.4733 -89.1919 71° East 567 652 35,700 1,400 Climbing Memphis Center
Sat 11:52:27 AM 35.5275 -88.9922 72° East 561 646 37,300 1,550 Climbing Memphis Center
Sat 11:53:27 AM 35.5775 -88.8128 71° East 561 646 38,800 1,500 Climbing Memphis Center
Sat 11:54:27 AM 35.6231 -88.6281 73° East 561 646 40,300 1,050 Climbing Memphis Center
Sat 11:55:27 AM 35.6747 -88.4456 71° East 561 646 40,900 350 Climbing Memphis Center
Sat 11:56:27 AM 35.7258 -88.2525 72° East 572 658 41,000 500 Climbing Memphis Center
Sat 11:57:27 AM 35.7725 -88.0644 73° East 577 664 41,900 950 Climbing Memphis Center
Sat 11:58:27 AM 35.8250 -87.8736 71° East 584 672 42,900 500 Climbing Memphis Center
Sat 11:59:27 AM 35.8733 -87.6878 72° East 579 666 42,900  Level Memphis Center
Sat 12:00:27 PM 35.9253 -87.4964 71° East 585 673 42,900  Level Memphis Center
Sat 12:01:27 PM 35.9750 -87.3047 72° East 585 673 42,900  Level Memphis Center
Sat 12:02:27 PM 36.0242 -87.1106 73° East 585 673 42,900  Level Memphis Center
Sat 12:03:27 PM 36.0733 -86.9158 73° East 585 673 42,900  Level Memphis Center
Sat 12:04:27 PM 36.1217 -86.7161 73° East 592 681 42,900  Level Memphis Center
Sat 12:05:27 PM 36.1847 -86.5256 68° East 597 687 42,900  Level Memphis Center
Sat 12:07:57 PM 36.3378 -86.0633 68° East 590 679 42,900  Level Indianapolis Center
Sat 12:08:58 PM 36.3992 -85.8706 68° East 593 682 42,900  Level Indianapolis Center
Sat 12:10:00 PM 36.4578 -85.6825 69° East 597 687 42,900  Level Indianapolis Center
Sat 12:11:01 PM 36.5189 -85.4906 68° East 595 685 42,900 49 Level Indianapolis Center
Sat 12:12:02 PM 36.5781 -85.2967 69° East 597 687 43,000 49 Climbing Indianapolis Center
Sat 12:13:03 PM 36.6381 -85.1019 69° East 600 690 43,000  Level Indianapolis Center
Sat 12:14:05 PM 36.6975 -84.9075 69° East 597 687 43,000  Level Indianapolis Center
Sat 12:15:06 PM 36.7558 -84.7122 70° East 600 690 43,000  Level Indianapolis Center
Sat 12:16:07 PM 36.8206 -84.5008 69° East 603 694 43,000  Level Indianapolis Center
Sat 12:17:08 PM 36.8789 -84.3083 69° East 595 685 43,000  Level Indianapolis Center
Sat 12:18:10 PM 36.9369 -84.1111 70° East 599 689 43,000  Level Indianapolis Center
Sat 12:19:11 PM 36.9964 -83.9153 69° East 602 693 43,000  Level Indianapolis Center
Sat 12:20:12 PM 37.0547 -83.7197 69° East 598 688 43,000  Level Indianapolis Center
Sat 12:21:13 PM 37.1128 -83.5214 70° East 600 690 43,000  Level Indianapolis Center
Sat 12:22:15 PM 37.1797 -83.2911 70° East 599 689 43,000  Level Indianapolis Center
Sat 12:23:16 PM 37.2367 -83.0919 70° East 600 690 43,000  Level Indianapolis Center
Sat 12:24:17 PM 37.2939 -82.8917 70° East 600 690 43,000  Level Indianapolis Center
Sat 12:25:18 PM 37.3503 -82.6925 70° East 600 690 43,000  Level Indianapolis Center
Sat 12:26:20 PM 37.4067 -82.4942 70° East 599 689 43,000  Level Indianapolis Center
Sat 12:27:21 PM 37.4614 -82.2958 71° East 598 688 43,000  Level Indianapolis Center
Sat 12:28:22 PM 37.5167 -82.0972 71° East 599 689 43,000  Level Indianapolis Center
Sat 12:29:24 PM 37.5714 -81.8994 71° East 597 687 43,000  Level Indianapolis Center
Sat 12:30:25 PM 37.6247 -81.7008 71° East 597 687 43,000  Level Indianapolis Center
Sat 12:31:26 PM 37.6853 -81.4853 70° East 598 688 43,000  Level Indianapolis Center
Sat 12:32:28 PM 37.7356 -81.2925 72° East 597 687 43,000  Level Indianapolis Center
Sat 12:33:29 PM 37.7814 -81.0964 73° East 598 688 43,000 -492 Level Indianapolis Center
Sat 12:34:30 PM 37.7961 -80.8967 85° East 588 677 42,000 -1,328 Descending Indianapolis Center
Sat 12:35:31 PM 37.8103 -80.6597 86° East 580 667 40,300 -1,707 Descending Indianapolis Center
Sat 12:36:26 PM 37.8203 -80.5028 85° East 577 664 38,700 -1,810 Descending Washington Center
Sat 12:37:27 PM 37.8347 -80.3011 85° East 577 664 36,800 -1,815 Descending Washington Center
Sat 12:38:25 PM 37.8464 -80.1072 86° East 564 649 35,100 -1,780 Descending Washington Center
Sat 12:39:25 PM 37.8606 -79.8922 85° East 559 643 33,300 -1,041 Descending Washington Center
Sat 12:40:26 PM 37.8714 -79.7036 86° East 544 626 33,000 -149 Descending Washington Center
Sat 12:41:26 PM 37.8839 -79.5122 85° East 544 626 33,000  Level Washington Center
Sat 12:42:27 PM 37.8922 -79.3231 87° East 544 626 33,000 -645 Level Washington Center
Sat 12:43:27 PM 37.9042 -79.1289 85° East 544 626 31,700 -1,436 Descending Washington Center
Sat 12:44:24 PM 37.9244 -78.9350 82° East 550 633 30,200 -1,210 Descending Washington Center
Sat 12:45:26 PM 37.9458 -78.7594 81° East 555 639 29,300 -590 Descending Washington Center
Sat 12:46:26 PM 37.9694 -78.5736 81° East 555 639 29,000 -149 Descending Washington Center
Sat 12:47:27 PM 37.9883 -78.3925 82° East 537 618 29,000  Level Washington Center
Sat 12:48:25 PM 38.0114 -78.2089 81° East 532 612 29,000  Level Washington Center
Sat 12:49:26 PM 38.0778 -78.0239 65° Northeast 514 592 29,000  Level Washington Center
Sat 12:50:26 PM 38.1558 -77.8653 58° Northeast 520 598 29,000  Level Washington Center
Sat 12:51:27 PM 38.2358 -77.7064 57° Northeast 520 598 29,000  Level Washington Center
Sat 12:52:27 PM 38.3136 -77.5472 58° Northeast 525 604 29,000  Level Washington Center
Sat 12:53:25 PM 38.3892 -77.3956 58° Northeast 525 604 29,000 -706 Level Washington Center
Sat 12:54:26 PM 38.4600 -77.2542 57° Northeast 499 574 27,600 -1,426 Descending Washington Center
Sat 12:55:27 PM 38.5264 -77.1122 59° Northeast 472 543 26,100 -1,412 Descending Washington Center
Sat 12:56:25 PM 38.5928 -76.9783 58° Northeast 457 526 24,800 -1,068 Descending Washington Center
Sat 12:57:25 PM 38.6589 -76.8439 58° Northeast 452 520 24,000 -1,150 Descending Washington Center
Sat 12:58:25 PM 38.7144 -76.7011 63° Northeast 447 514 22,500 -1,636 Descending Washington Center
Sat 12:59:26 PM 38.7447 -76.5553 75° East 426 490 20,700 -1,475 Descending Washington Center
Sat 01:00:27 PM 38.7750 -76.4172 74° East 415 478 19,500 -1,388 Descending Washington Center
Sat 01:01:27 PM 38.8008 -76.2814 76° East 400 460 17,900 -1,627 Descending Washington Center
Sat 01:02:25 PM 38.8308 -76.1433 74° East 400 460 16,300 -1,475 Descending Washington Center
Sat 01:03:25 PM 38.8564 -76.0236 75° East 390 449 15,000 -694 Descending Washington Center
Sat 01:04:26 PM 38.8839 -75.8878 75° East 390 449 14,900 -248 Descending Washington Center
Sat 01:05:26 PM 38.9486 -75.7839 51° Northeast 371 427 14,500 -1,393 Descending Washington Center
Sat 01:07:14 PM 39.1167 -75.6667 28° Northeast 334 384 11,000 -1,500 Descending Philadelphia TRACON
Sat 01:08:26 PM 39.2167 -75.6667 360° North 297 342 10,000 -545 Descending Philadelphia TRACON
Sat 01:09:26 PM 39.3000 -75.6333 17° North 307 353 9,800 -850 Descending Philadelphia TRACON
Sat 01:10:26 PM 39.3667 -75.5833 30° Northeast 307 353 8,300 -1,316 Descending Philadelphia TRACON
Sat 01:11:20 PM 39.4333 -75.5000 44° Northeast 299 344 7,300 -1,250 Descending Philadelphia TRACON
Sat 01:12:26 PM 39.4833 -75.4167 52° Northeast 300 345 5,800 -1,350 Descending Philadelphia TRACON
Sat 01:13:20 PM 39.5500 -75.3500 38° Northeast 292 336 4,600 -947 Descending Philadelphia TRACON
Sat 01:14:20 PM 39.6000 -75.2833 46° Northeast 287 330 4,000 -316 Descending Philadelphia TRACON
Sat 01:15:14 PM 39.6500 -75.2167 46° Northeast 283 326 4,000  Level Philadelphia TRACON
Sat 01:16:14 PM 39.7167 -75.2500 339° North 245 282 4,000  Level Philadelphia TRACON
Sat 01:17:08 PM 39.7667 -75.2667 346° North 211 243 4,000  Level Philadelphia TRACON
Sat 01:18:14 PM 39.8333 -75.3000 339° North 218 251 4,000 -409 Level Philadelphia TRACON
Sat 01:19:20 PM 39.9000 -75.3333 339° North 204 235 3,100 -864 Descending Philadelphia TRACON
Sat 01:20:26 PM 39.9500 -75.3500 346° North 176 203 2,100 -524 Descending Philadelphia TRACON
Sat 01:21:26 PM 39.9833 -75.3333 21° North 190 219 2,000 -149 Descending Philadelphia TRACON
Sat 01:22:27 PM 39.9667 -75.2833 113° Southeast 153 176 1,800 -522 Descending Philadelphia TRACON
Sat 01:23:21 PM 39.9333 -75.2667 159° South 147 169 1,000 -750 Descending Philadelphia TRACON
Sat 01:24:27 PM 39.9000 -75.2500 159° South 118 136 300 -636 Descending Philadelphia TRACON
Sat 01:26:00 PM 39.8667 -75.2333 133° Southeast  Level FlightAware Approximate
Sat 01:33:00 PM 39.8722 -75.2409 133° Southeast  Level Estimated

Login

Don't have an account? Register now (free) for customized features, flight alerts, and more!